This is the latest recevied weather packets stored in our database for station/object K9YK-13. If no packets are shown the sender has not sent any weather packets the latest 1 day(s).
| Time | Temp. | Humidity | Pressure | Rain* | Wind** | Luminosity | Snow |
|---|---|---|---|---|---|---|---|
| 1778034069 | 10.56° C | 96% | 0 hPa | 0 mm | - | - | - |
| 1778033469 | 10.56° C | 96% | 0 hPa | 0 mm | - | - | - |
| 1778033169 | 10° C | 96% | 0 hPa | 0 mm | - | - | - |
| 1778031970 | 10° C | 96% | 0 hPa | 0 mm | - | - | - |
| 1778031669 | 10° C | 96% | 0 hPa | 0 mm | - | - | - |
| 1778031370 | 10.56° C | 96% | 0 hPa | 0 mm | - | - | - |
| 1778031070 | 10° C | 96% | 0 hPa | 0 mm | - | - | - |
| 1778030769 | 10° C | 96% | 0 hPa | 0 mm | - | - | - |
| 1778030169 | 10.56° C | 95% | 0 hPa | 0 mm | - | - | - |
| 1778027770 | 10.56° C | 94% | 0 hPa | 0 mm | - | - | - |
| 1778025970 | 10° C | 94% | 0 hPa | 0 mm | - | - | - |
| 1778022970 | 11.11° C | 93% | 0 hPa | 0 mm | - | - | - |
| 1778019370 | 12.22° C | 94% | 0 hPa | 0 mm | - | - | - |
| 1778019070 | 12.22° C | 94% | 0 hPa | 0 mm | - | - | - |
| 1778018170 | 12.22° C | 94% | 0 hPa | 0 mm | - | - | - |
| 1778017570 | 11.67° C | 93% | 0 hPa | 0 mm | - | - | - |
| 1778016670 | 11.67° C | 94% | 0 hPa | 0 mm | - | - | - |
| 1778015770 | 11.11° C | 95% | 0 hPa | 0 mm | - | - | - |
| 1778014870 | 10.56° C | 96% | 0 hPa | 0 mm | - | - | - |
| 1778014270 | 11.67° C | 89% | 0 hPa | 0 mm | - | - | - |
| 1778013670 | 12.22° C | 89% | 0 hPa | 0 mm | - | - | - |
| 1778012770 | 11.67° C | 89% | 0 hPa | 0 mm | - | - | - |
| 1778012170 | 11.11° C | 90% | 0 hPa | 0 mm | - | - | - |
| 1778011270 | 10° C | 92% | 0 hPa | 0 mm | - | - | - |
| 1778010970 | 10.56° C | 88% | 0 hPa | 0 mm | - | - | - |
* Rain latest hour (hover to see other rain measurements)
** Current wind speed in m/s (hover to see current wind gust speed)